sensor_id;sensor_type;location;lat;lon;timestamp;P1;durP1;ratioP1;P2;durP2;ratioP2
60076;SDS011;45950;45.208;20.374;2022-08-03T00:00:49;3.88;;;3.47;;
60076;SDS011;45950;45.208;20.374;2022-08-03T00:03:15;6.68;;;4.57;;
60076;SDS011;45950;45.208;20.374;2022-08-03T00:05:42;8.55;;;4.90;;
60076;SDS011;45950;45.208;20.374;2022-08-03T00:08:10;9.25;;;4.40;;
60076;SDS011;45950;45.208;20.374;2022-08-03T00:10:37;7.03;;;4.90;;
60076;SDS011;45950;45.208;20.374;2022-08-03T00:13:04;9.38;;;5.10;;
60076;SDS011;45950;45.208;20.374;2022-08-03T00:15:31;7.30;;;5.15;;
60076;SDS011;45950;45.208;20.374;2022-08-03T00:17:57;10.98;;;4.50;;
60076;SDS011;45950;45.208;20.374;2022-08-03T00:20:24;11.50;;;5.05;;
60076;SDS011;45950;45.208;20.374;2022-08-03T00:22:51;9.65;;;4.65;;
60076;SDS011;45950;45.208;20.374;2022-08-03T00:25:19;6.85;;;4.40;;
60076;SDS011;45950;45.208;20.374;2022-08-03T00:27:46;8.52;;;4.10;;
60076;SDS011;45950;45.208;20.374;2022-08-03T00:30:13;9.55;;;4.07;;
60076;SDS011;45950;45.208;20.374;2022-08-03T00:32:39;7.55;;;4.60;;
60076;SDS011;45950;45.208;20.374;2022-08-03T00:35:07;6.55;;;4.57;;
60076;SDS011;45950;45.208;20.374;2022-08-03T00:37:33;6.88;;;4.70;;
60076;SDS011;45950;45.208;20.374;2022-08-03T00:40:00;7.72;;;4.43;;
60076;SDS011;45950;45.208;20.374;2022-08-03T00:42:28;9.75;;;4.90;;
60076;SDS011;45950;45.208;20.374;2022-08-03T00:44:55;9.98;;;4.80;;
60076;SDS011;45950;45.208;20.374;2022-08-03T00:47:22;6.18;;;4.43;;
60076;SDS011;45950;45.208;20.374;2022-08-03T00:49:48;7.88;;;4.95;;
60076;SDS011;45950;45.208;20.374;2022-08-03T00:52:15;10.05;;;4.82;;
60076;SDS011;45950;45.208;20.374;2022-08-03T00:54:42;5.97;;;4.15;;
60076;SDS011;45950;45.208;20.374;2022-08-03T00:57:09;6.57;;;4.03;;
60076;SDS011;45950;45.208;20.374;2022-08-03T00:59:37;7.20;;;4.40;;
60076;SDS011;45950;45.208;20.374;2022-08-03T01:02:04;7.88;;;4.20;;
60076;SDS011;45950;45.208;20.374;2022-08-03T01:04:31;6.75;;;3.92;;
60076;SDS011;45950;45.208;20.374;2022-08-03T01:07:00;6.75;;;4.38;;
60076;SDS011;45950;45.208;20.374;2022-08-03T01:09:31;10.68;;;4.07;;
60076;SDS011;45950;45.208;20.374;2022-08-03T01:12:02;8.30;;;4.40;;
60076;SDS011;45950;45.208;20.374;2022-08-03T01:14:33;5.72;;;3.90;;
60076;SDS011;45950;45.208;20.374;2022-08-03T01:17:07;6.30;;;3.88;;
60076;SDS011;45950;45.208;20.374;2022-08-03T01:19:38;7.15;;;3.70;;
60076;SDS011;45950;45.208;20.374;2022-08-03T01:22:09;4.45;;;3.17;;
60076;SDS011;45950;45.208;20.374;2022-08-03T01:24:43;5.40;;;3.88;;
60076;SDS011;45950;45.208;20.374;2022-08-03T01:27:14;5.05;;;4.20;;
60076;SDS011;45950;45.208;20.374;2022-08-03T01:29:57;5.90;;;3.85;;
60076;SDS011;45950;45.208;20.374;2022-08-03T01:32:25;6.18;;;3.78;;
60076;SDS011;45950;45.208;20.374;2022-08-03T01:34:54;5.18;;;3.50;;
60076;SDS011;45950;45.208;20.374;2022-08-03T01:37:25;6.15;;;3.78;;
60076;SDS011;45950;45.208;20.374;2022-08-03T01:39:53;5.25;;;3.63;;
60076;SDS011;45950;45.208;20.374;2022-08-03T01:42:22;8.80;;;3.75;;
60076;SDS011;45950;45.208;20.374;2022-08-03T01:44:50;8.05;;;4.18;;
60076;SDS011;45950;45.208;20.374;2022-08-03T01:47:19;7.40;;;3.90;;
60076;SDS011;45950;45.208;20.374;2022-08-03T01:49:47;4.95;;;4.22;;
60076;SDS011;45950;45.208;20.374;2022-08-03T01:52:16;5.40;;;3.95;;
60076;SDS011;45950;45.208;20.374;2022-08-03T01:54:44;5.47;;;4.25;;
60076;SDS011;45950;45.208;20.374;2022-08-03T01:57:12;6.40;;;4.18;;
60076;SDS011;45950;45.208;20.374;2022-08-03T01:59:39;5.03;;;4.28;;
60076;SDS011;45950;45.208;20.374;2022-08-03T02:02:07;7.68;;;5.20;;
60076;SDS011;45950;45.208;20.374;2022-08-03T02:04:35;9.75;;;5.28;;
60076;SDS011;45950;45.208;20.374;2022-08-03T02:07:03;6.00;;;4.28;;
60076;SDS011;45950;45.208;20.374;2022-08-03T02:09:31;6.05;;;3.90;;
60076;SDS011;45950;45.208;20.374;2022-08-03T02:11:59;5.75;;;5.00;;
60076;SDS011;45950;45.208;20.374;2022-08-03T02:14:27;7.65;;;4.28;;
60076;SDS011;45950;45.208;20.374;2022-08-03T02:16:54;8.38;;;4.95;;
60076;SDS011;45950;45.208;20.374;2022-08-03T02:19:21;9.07;;;4.70;;
60076;SDS011;45950;45.208;20.374;2022-08-03T02:21:50;4.95;;;4.05;;
60076;SDS011;45950;45.208;20.374;2022-08-03T02:24:17;7.05;;;4.57;;
60076;SDS011;45950;45.208;20.374;2022-08-03T02:26:43;6.80;;;4.25;;
60076;SDS011;45950;45.208;20.374;2022-08-03T02:29:12;6.90;;;4.32;;
60076;SDS011;45950;45.208;20.374;2022-08-03T02:31:39;6.65;;;4.35;;
60076;SDS011;45950;45.208;20.374;2022-08-03T02:34:07;5.47;;;4.38;;
60076;SDS011;45950;45.208;20.374;2022-08-03T02:36:35;8.15;;;4.68;;
60076;SDS011;45950;45.208;20.374;2022-08-03T02:39:05;6.57;;;4.78;;
60076;SDS011;45950;45.208;20.374;2022-08-03T02:41:34;6.40;;;4.55;;
60076;SDS011;45950;45.208;20.374;2022-08-03T02:44:03;10.18;;;6.15;;
60076;SDS011;45950;45.208;20.374;2022-08-03T02:46:33;9.98;;;5.20;;
60076;SDS011;45950;45.208;20.374;2022-08-03T02:49:02;9.65;;;5.78;;
60076;SDS011;45950;45.208;20.374;2022-08-03T02:51:31;6.35;;;5.22;;
60076;SDS011;45950;45.208;20.374;2022-08-03T02:53:59;11.00;;;5.93;;
60076;SDS011;45950;45.208;20.374;2022-08-03T02:56:27;9.15;;;5.97;;
60076;SDS011;45950;45.208;20.374;2022-08-03T02:58:55;7.85;;;5.80;;
60076;SDS011;45950;45.208;20.374;2022-08-03T03:01:22;7.78;;;5.07;;
60076;SDS011;45950;45.208;20.374;2022-08-03T03:03:49;9.50;;;5.95;;
60076;SDS011;45950;45.208;20.374;2022-08-03T03:06:17;6.53;;;5.85;;
60076;SDS011;45950;45.208;20.374;2022-08-03T03:08:44;9.45;;;6.50;;
60076;SDS011;45950;45.208;20.374;2022-08-03T03:11:12;9.32;;;6.25;;
60076;SDS011;45950;45.208;20.374;2022-08-03T03:13:40;10.13;;;6.82;;
60076;SDS011;45950;45.208;20.374;2022-08-03T03:16:08;7.60;;;5.18;;
60076;SDS011;45950;45.208;20.374;2022-08-03T03:18:35;8.85;;;6.00;;
60076;SDS011;45950;45.208;20.374;2022-08-03T03:21:03;8.10;;;5.50;;
60076;SDS011;45950;45.208;20.374;2022-08-03T03:23:30;7.75;;;5.45;;
60076;SDS011;45950;45.208;20.374;2022-08-03T03:25:57;8.43;;;4.70;;
60076;SDS011;45950;45.208;20.374;2022-08-03T03:28:26;8.25;;;4.78;;
60076;SDS011;45950;45.208;20.374;2022-08-03T03:30:55;9.63;;;5.95;;
60076;SDS011;45950;45.208;20.374;2022-08-03T03:33:22;10.65;;;6.45;;
60076;SDS011;45950;45.208;20.374;2022-08-03T03:35:49;7.00;;;5.13;;
60076;SDS011;45950;45.208;20.374;2022-08-03T03:38:17;6.57;;;5.03;;
60076;SDS011;45950;45.208;20.374;2022-08-03T03:40:43;7.85;;;5.30;;
60076;SDS011;45950;45.208;20.374;2022-08-03T03:43:10;8.77;;;5.68;;
60076;SDS011;45950;45.208;20.374;2022-08-03T03:45:37;5.20;;;4.60;;
60076;SDS011;45950;45.208;20.374;2022-08-03T03:48:07;8.57;;;5.93;;
60076;SDS011;45950;45.208;20.374;2022-08-03T03:50:34;7.20;;;5.57;;
60076;SDS011;45950;45.208;20.374;2022-08-03T03:53:02;7.93;;;5.68;;
60076;SDS011;45950;45.208;20.374;2022-08-03T03:55:29;7.93;;;6.03;;
60076;SDS011;45950;45.208;20.374;2022-08-03T03:57:55;9.25;;;6.95;;
60076;SDS011;45950;45.208;20.374;2022-08-03T04:00:22;9.63;;;5.50;;
60076;SDS011;45950;45.208;20.374;2022-08-03T04:02:49;10.50;;;6.65;;
60076;SDS011;45950;45.208;20.374;2022-08-03T04:05:17;11.25;;;6.72;;
60076;SDS011;45950;45.208;20.374;2022-08-03T04:08:02;10.43;;;8.05;;
60076;SDS011;45950;45.208;20.374;2022-08-03T04:10:47;10.93;;;7.00;;
60076;SDS011;45950;45.208;20.374;2022-08-03T04:13:26;10.13;;;7.28;;
60076;SDS011;45950;45.208;20.374;2022-08-03T04:15:55;14.75;;;8.90;;
60076;SDS011;45950;45.208;20.374;2022-08-03T04:18:22;14.63;;;9.15;;
60076;SDS011;45950;45.208;20.374;2022-08-03T04:20:52;13.13;;;7.15;;
60076;SDS011;45950;45.208;20.374;2022-08-03T04:23:21;10.70;;;7.75;;
60076;SDS011;45950;45.208;20.374;2022-08-03T04:25:52;14.30;;;10.10;;
60076;SDS011;45950;45.208;20.374;2022-08-03T04:28:20;13.57;;;10.35;;
60076;SDS011;45950;45.208;20.374;2022-08-03T04:30:47;13.55;;;10.40;;
60076;SDS011;45950;45.208;20.374;2022-08-03T04:33:16;12.43;;;10.52;;
60076;SDS011;45950;45.208;20.374;2022-08-03T04:35:43;14.00;;;10.18;;
60076;SDS011;45950;45.208;20.374;2022-08-03T04:38:14;11.40;;;9.02;;
60076;SDS011;45950;45.208;20.374;2022-08-03T04:40:42;18.10;;;12.73;;
60076;SDS011;45950;45.208;20.374;2022-08-03T04:43:10;18.25;;;13.55;;
60076;SDS011;45950;45.208;20.374;2022-08-03T04:45:38;16.05;;;13.43;;
60076;SDS011;45950;45.208;20.374;2022-08-03T04:48:05;15.25;;;10.73;;
60076;SDS011;45950;45.208;20.374;2022-08-03T04:50:32;13.38;;;9.40;;
60076;SDS011;45950;45.208;20.374;2022-08-03T04:52:59;15.43;;;12.23;;
60076;SDS011;45950;45.208;20.374;2022-08-03T04:55:29;14.13;;;9.25;;
60076;SDS011;45950;45.208;20.374;2022-08-03T04:57:56;15.43;;;12.70;;
60076;SDS011;45950;45.208;20.374;2022-08-03T05:00:24;15.32;;;13.27;;
60076;SDS011;45950;45.208;20.374;2022-08-03T05:02:51;16.52;;;13.80;;
60076;SDS011;45950;45.208;20.374;2022-08-03T05:05:18;15.88;;;13.48;;
60076;SDS011;45950;45.208;20.374;2022-08-03T05:07:45;15.85;;;9.80;;
60076;SDS011;45950;45.208;20.374;2022-08-03T05:10:12;13.43;;;9.98;;
60076;SDS011;45950;45.208;20.374;2022-08-03T05:12:40;14.35;;;9.93;;
60076;SDS011;45950;45.208;20.374;2022-08-03T05:15:07;12.95;;;10.02;;
60076;SDS011;45950;45.208;20.374;2022-08-03T05:17:34;15.88;;;12.73;;
60076;SDS011;45950;45.208;20.374;2022-08-03T05:20:01;13.55;;;10.23;;
60076;SDS011;45950;45.208;20.374;2022-08-03T05:22:28;15.90;;;11.38;;
60076;SDS011;45950;45.208;20.374;2022-08-03T05:24:54;18.75;;;11.98;;
60076;SDS011;45950;45.208;20.374;2022-08-03T05:27:21;15.55;;;12.30;;
60076;SDS011;45950;45.208;20.374;2022-08-03T05:29:49;16.20;;;12.25;;
60076;SDS011;45950;45.208;20.374;2022-08-03T05:32:16;13.10;;;10.60;;
60076;SDS011;45950;45.208;20.374;2022-08-03T05:34:43;12.40;;;10.70;;
60076;SDS011;45950;45.208;20.374;2022-08-03T05:37:10;16.90;;;11.27;;
60076;SDS011;45950;45.208;20.374;2022-08-03T05:39:37;13.20;;;10.57;;
60076;SDS011;45950;45.208;20.374;2022-08-03T05:42:03;13.68;;;11.18;;
60076;SDS011;45950;45.208;20.374;2022-08-03T05:44:30;16.48;;;13.82;;
60076;SDS011;45950;45.208;20.374;2022-08-03T05:46:58;16.25;;;13.70;;
60076;SDS011;45950;45.208;20.374;2022-08-03T05:49:25;13.35;;;11.63;;
60076;SDS011;45950;45.208;20.374;2022-08-03T05:51:52;15.70;;;13.65;;
60076;SDS011;45950;45.208;20.374;2022-08-03T05:54:18;15.07;;;12.63;;
60076;SDS011;45950;45.208;20.374;2022-08-03T05:56:45;17.67;;;12.43;;
60076;SDS011;45950;45.208;20.374;2022-08-03T05:59:12;15.20;;;13.35;;
60076;SDS011;45950;45.208;20.374;2022-08-03T06:01:39;17.95;;;14.13;;
60076;SDS011;45950;45.208;20.374;2022-08-03T06:04:07;14.98;;;13.05;;
60076;SDS011;45950;45.208;20.374;2022-08-03T06:06:34;13.20;;;11.73;;
60076;SDS011;45950;45.208;20.374;2022-08-03T06:09:00;14.73;;;12.30;;
60076;SDS011;45950;45.208;20.374;2022-08-03T06:11:27;11.88;;;9.63;;
60076;SDS011;45950;45.208;20.374;2022-08-03T06:13:54;13.73;;;11.55;;
60076;SDS011;45950;45.208;20.374;2022-08-03T06:16:21;16.80;;;12.05;;
60076;SDS011;45950;45.208;20.374;2022-08-03T06:18:47;12.63;;;11.10;;
60076;SDS011;45950;45.208;20.374;2022-08-03T06:21:15;10.77;;;9.68;;
60076;SDS011;45950;45.208;20.374;2022-08-03T06:23:43;13.55;;;11.32;;
60076;SDS011;45950;45.208;20.374;2022-08-03T06:26:09;10.65;;;9.65;;
60076;SDS011;45950;45.208;20.374;2022-08-03T06:28:36;10.18;;;8.32;;
60076;SDS011;45950;45.208;20.374;2022-08-03T06:31:03;9.77;;;8.73;;
60076;SDS011;45950;45.208;20.374;2022-08-03T06:33:30;10.30;;;9.30;;
60076;SDS011;45950;45.208;20.374;2022-08-03T06:35:57;11.75;;;10.52;;
60076;SDS011;45950;45.208;20.374;2022-08-03T06:38:25;10.13;;;9.02;;
60076;SDS011;45950;45.208;20.374;2022-08-03T06:40:51;13.00;;;9.82;;
60076;SDS011;45950;45.208;20.374;2022-08-03T06:43:18;12.27;;;7.65;;
60076;SDS011;45950;45.208;20.374;2022-08-03T06:45:45;9.95;;;8.15;;
60076;SDS011;45950;45.208;20.374;2022-08-03T06:48:12;12.60;;;9.20;;
60076;SDS011;45950;45.208;20.374;2022-08-03T06:50:39;11.40;;;9.02;;
60076;SDS011;45950;45.208;20.374;2022-08-03T06:53:05;9.63;;;8.57;;
60076;SDS011;45950;45.208;20.374;2022-08-03T06:55:34;9.35;;;8.23;;
60076;SDS011;45950;45.208;20.374;2022-08-03T06:58:01;12.25;;;9.43;;
60076;SDS011;45950;45.208;20.374;2022-08-03T07:00:28;8.35;;;7.55;;
60076;SDS011;45950;45.208;20.374;2022-08-03T07:02:55;7.10;;;6.18;;
60076;SDS011;45950;45.208;20.374;2022-08-03T07:05:21;8.30;;;6.32;;
60076;SDS011;45950;45.208;20.374;2022-08-03T07:07:48;8.75;;;6.30;;
60076;SDS011;45950;45.208;20.374;2022-08-03T07:10:15;6.63;;;6.03;;
60076;SDS011;45950;45.208;20.374;2022-08-03T07:12:43;7.95;;;7.15;;
60076;SDS011;45950;45.208;20.374;2022-08-03T07:15:10;6.72;;;5.75;;
60076;SDS011;45950;45.208;20.374;2022-08-03T07:17:36;10.60;;;6.25;;
60076;SDS011;45950;45.208;20.374;2022-08-03T07:20:04;7.30;;;6.60;;
60076;SDS011;45950;45.208;20.374;2022-08-03T07:22:31;7.10;;;6.28;;
60076;SDS011;45950;45.208;20.374;2022-08-03T07:24:58;7.05;;;6.35;;
60076;SDS011;45950;45.208;20.374;2022-08-03T07:27:25;8.32;;;7.53;;
60076;SDS011;45950;45.208;20.374;2022-08-03T07:29:54;8.25;;;7.32;;
60076;SDS011;45950;45.208;20.374;2022-08-03T07:32:21;7.45;;;6.18;;
60076;SDS011;45950;45.208;20.374;2022-08-03T07:34:48;8.07;;;6.68;;
60076;SDS011;45950;45.208;20.374;2022-08-03T07:37:15;8.63;;;7.00;;
60076;SDS011;45950;45.208;20.374;2022-08-03T07:39:42;7.60;;;6.70;;
60076;SDS011;45950;45.208;20.374;2022-08-03T07:42:08;8.07;;;7.00;;
60076;SDS011;45950;45.208;20.374;2022-08-03T07:44:35;8.38;;;6.53;;
60076;SDS011;45950;45.208;20.374;2022-08-03T07:47:04;6.88;;;6.18;;
60076;SDS011;45950;45.208;20.374;2022-08-03T07:49:31;9.30;;;6.68;;
60076;SDS011;45950;45.208;20.374;2022-08-03T07:51:58;10.43;;;7.25;;
60076;SDS011;45950;45.208;20.374;2022-08-03T07:54:42;8.65;;;6.20;;
60076;SDS011;45950;45.208;20.374;2022-08-03T07:57:09;7.85;;;6.97;;
60076;SDS011;45950;45.208;20.374;2022-08-03T07:59:35;5.95;;;5.15;;
60076;SDS011;45950;45.208;20.374;2022-08-03T08:02:06;7.45;;;6.43;;
60076;SDS011;45950;45.208;20.374;2022-08-03T08:04:32;6.97;;;5.60;;
60076;SDS011;45950;45.208;20.374;2022-08-03T08:06:59;7.18;;;5.72;;
60076;SDS011;45950;45.208;20.374;2022-08-03T08:09:26;6.22;;;5.30;;
60076;SDS011;45950;45.208;20.374;2022-08-03T08:11:53;7.95;;;5.55;;
60076;SDS011;45950;45.208;20.374;2022-08-03T08:14:19;6.78;;;4.93;;
60076;SDS011;45950;45.208;20.374;2022-08-03T08:16:46;6.47;;;5.88;;
60076;SDS011;45950;45.208;20.374;2022-08-03T08:19:15;7.47;;;5.57;;
60076;SDS011;45950;45.208;20.374;2022-08-03T08:21:41;5.60;;;4.78;;
60076;SDS011;45950;45.208;20.374;2022-08-03T08:24:08;5.63;;;4.43;;
60076;SDS011;45950;45.208;20.374;2022-08-03T08:26:35;6.07;;;5.45;;
60076;SDS011;45950;45.208;20.374;2022-08-03T08:29:02;9.93;;;5.72;;
60076;SDS011;45950;45.208;20.374;2022-08-03T08:31:29;5.30;;;4.80;;
60076;SDS011;45950;45.208;20.374;2022-08-03T08:33:55;6.50;;;4.35;;
60076;SDS011;45950;45.208;20.374;2022-08-03T08:36:24;5.32;;;4.82;;
60076;SDS011;45950;45.208;20.374;2022-08-03T08:38:50;7.82;;;4.97;;
60076;SDS011;45950;45.208;20.374;2022-08-03T08:41:17;5.60;;;4.30;;
60076;SDS011;45950;45.208;20.374;2022-08-03T08:43:44;5.95;;;5.35;;
60076;SDS011;45950;45.208;20.374;2022-08-03T08:46:11;6.05;;;4.22;;
60076;SDS011;45950;45.208;20.374;2022-08-03T08:48:39;4.60;;;4.00;;
60076;SDS011;45950;45.208;20.374;2022-08-03T08:51:06;4.60;;;3.67;;
60076;SDS011;45950;45.208;20.374;2022-08-03T08:53:35;4.47;;;3.35;;
60076;SDS011;45950;45.208;20.374;2022-08-03T08:56:02;5.05;;;3.78;;
60076;SDS011;45950;45.208;20.374;2022-08-03T08:58:33;4.40;;;3.38;;
60076;SDS011;45950;45.208;20.374;2022-08-03T09:01:00;4.32;;;3.50;;
60076;SDS011;45950;45.208;20.374;2022-08-03T09:03:27;5.00;;;3.65;;
60076;SDS011;45950;45.208;20.374;2022-08-03T09:05:59;4.13;;;3.63;;
60076;SDS011;45950;45.208;20.374;2022-08-03T09:08:27;4.18;;;3.25;;
60076;SDS011;45950;45.208;20.374;2022-08-03T09:10:55;5.20;;;3.70;;
60076;SDS011;45950;45.208;20.374;2022-08-03T09:13:22;3.38;;;3.08;;
60076;SDS011;45950;45.208;20.374;2022-08-03T09:16:02;3.38;;;2.58;;
60076;SDS011;45950;45.208;20.374;2022-08-03T09:18:34;3.20;;;2.90;;
60076;SDS011;45950;45.208;20.374;2022-08-03T09:21:11;3.78;;;3.00;;
60076;SDS011;45950;45.208;20.374;2022-08-03T09:23:42;4.35;;;2.90;;
60076;SDS011;45950;45.208;20.374;2022-08-03T09:26:11;4.28;;;3.10;;
60076;SDS011;45950;45.208;20.374;2022-08-03T09:28:38;4.90;;;3.08;;
60076;SDS011;45950;45.208;20.374;2022-08-03T09:31:05;7.70;;;3.20;;
60076;SDS011;45950;45.208;20.374;2022-08-03T09:33:32;4.40;;;2.92;;
60076;SDS011;45950;45.208;20.374;2022-08-03T09:36:13;4.32;;;3.03;;
60076;SDS011;45950;45.208;20.374;2022-08-03T09:39:02;3.13;;;2.83;;
60076;SDS011;45950;45.208;20.374;2022-08-03T09:41:32;3.30;;;2.97;;
60076;SDS011;45950;45.208;20.374;2022-08-03T09:43:58;5.07;;;3.58;;
60076;SDS011;45950;45.208;20.374;2022-08-03T09:46:25;3.80;;;2.78;;
60076;SDS011;45950;45.208;20.374;2022-08-03T09:49:07;4.95;;;2.97;;
60076;SDS011;45950;45.208;20.374;2022-08-03T09:51:34;3.63;;;2.97;;
60076;SDS011;45950;45.208;20.374;2022-08-03T09:54:01;4.85;;;3.40;;
60076;SDS011;45950;45.208;20.374;2022-08-03T09:56:40;3.28;;;2.88;;
60076;SDS011;45950;45.208;20.374;2022-08-03T09:59:07;3.40;;;3.10;;
60076;SDS011;45950;45.208;20.374;2022-08-03T10:01:34;3.60;;;3.00;;
60076;SDS011;45950;45.208;20.374;2022-08-03T10:04:01;5.22;;;3.05;;
60076;SDS011;45950;45.208;20.374;2022-08-03T10:06:28;4.25;;;3.20;;
60076;SDS011;45950;45.208;20.374;2022-08-03T10:09:03;4.20;;;3.25;;
60076;SDS011;45950;45.208;20.374;2022-08-03T10:11:31;5.85;;;3.03;;
60076;SDS011;45950;45.208;20.374;2022-08-03T10:14:00;4.10;;;2.70;;
60076;SDS011;45950;45.208;20.374;2022-08-03T10:16:28;3.75;;;2.97;;
60076;SDS011;45950;45.208;20.374;2022-08-03T10:18:58;4.18;;;2.80;;
60076;SDS011;45950;45.208;20.374;2022-08-03T10:21:25;3.80;;;2.60;;
60076;SDS011;45950;45.208;20.374;2022-08-03T10:23:54;4.65;;;2.83;;
60076;SDS011;45950;45.208;20.374;2022-08-03T10:26:21;4.47;;;2.50;;
60076;SDS011;45950;45.208;20.374;2022-08-03T10:28:51;3.60;;;3.00;;
60076;SDS011;45950;45.208;20.374;2022-08-03T10:31:20;3.08;;;2.63;;
60076;SDS011;45950;45.208;20.374;2022-08-03T10:33:48;2.80;;;2.50;;
60076;SDS011;45950;45.208;20.374;2022-08-03T10:36:17;6.28;;;3.05;;
60076;SDS011;45950;45.208;20.374;2022-08-03T10:38:46;4.40;;;2.60;;
60076;SDS011;45950;45.208;20.374;2022-08-03T10:41:16;3.40;;;2.50;;
60076;SDS011;45950;45.208;20.374;2022-08-03T10:43:46;3.67;;;2.55;;
60076;SDS011;45950;45.208;20.374;2022-08-03T10:46:14;3.58;;;2.78;;
60076;SDS011;45950;45.208;20.374;2022-08-03T10:48:44;4.30;;;2.90;;
60076;SDS011;45950;45.208;20.374;2022-08-03T10:51:11;3.38;;;2.33;;
60076;SDS011;45950;45.208;20.374;2022-08-03T10:53:38;2.72;;;2.30;;
60076;SDS011;45950;45.208;20.374;2022-08-03T10:56:06;4.60;;;2.72;;
60076;SDS011;45950;45.208;20.374;2022-08-03T10:59:10;3.28;;;2.55;;
60076;SDS011;45950;45.208;20.374;2022-08-03T11:01:48;3.08;;;2.55;;
60076;SDS011;45950;45.208;20.374;2022-08-03T11:04:17;3.10;;;2.80;;
60076;SDS011;45950;45.208;20.374;2022-08-03T11:06:44;5.53;;;2.78;;
60076;SDS011;45950;45.208;20.374;2022-08-03T11:09:18;4.60;;;2.67;;
60076;SDS011;45950;45.208;20.374;2022-08-03T11:11:45;4.57;;;3.13;;
60076;SDS011;45950;45.208;20.374;2022-08-03T11:14:13;3.10;;;2.42;;
60076;SDS011;45950;45.208;20.374;2022-08-03T11:16:40;3.30;;;2.78;;
60076;SDS011;45950;45.208;20.374;2022-08-03T11:19:09;3.08;;;2.60;;
60076;SDS011;45950;45.208;20.374;2022-08-03T11:21:54;3.90;;;2.60;;
60076;SDS011;45950;45.208;20.374;2022-08-03T11:27:17;4.15;;;2.78;;
60076;SDS011;45950;45.208;20.374;2022-08-03T11:29:53;2.97;;;2.67;;
60076;SDS011;45950;45.208;20.374;2022-08-03T11:35:05;4.05;;;2.90;;
60076;SDS011;45950;45.208;20.374;2022-08-03T11:37:34;3.80;;;2.63;;
60076;SDS011;45950;45.208;20.374;2022-08-03T11:40:01;3.85;;;2.75;;
60076;SDS011;45950;45.208;20.374;2022-08-03T11:42:41;4.30;;;3.13;;
60076;SDS011;45950;45.208;20.374;2022-08-03T11:45:12;2.92;;;2.55;;
60076;SDS011;45950;45.208;20.374;2022-08-03T11:47:39;3.63;;;2.97;;
60076;SDS011;45950;45.208;20.374;2022-08-03T11:50:07;3.67;;;3.00;;
60076;SDS011;45950;45.208;20.374;2022-08-03T11:52:36;3.13;;;2.83;;
60076;SDS011;45950;45.208;20.374;2022-08-03T11:55:07;3.03;;;2.72;;
60076;SDS011;45950;45.208;20.374;2022-08-03T11:57:34;3.30;;;3.00;;
60076;SDS011;45950;45.208;20.374;2022-08-03T12:00:01;4.75;;;3.08;;
60076;SDS011;45950;45.208;20.374;2022-08-03T12:02:28;3.17;;;2.60;;
60076;SDS011;45950;45.208;20.374;2022-08-03T12:04:55;3.22;;;2.92;;
60076;SDS011;45950;45.208;20.374;2022-08-03T12:07:22;2.95;;;2.38;;
60076;SDS011;45950;45.208;20.374;2022-08-03T12:10:06;2.97;;;2.42;;
60076;SDS011;45950;45.208;20.374;2022-08-03T12:12:33;2.90;;;2.53;;
60076;SDS011;45950;45.208;20.374;2022-08-03T12:15:01;3.45;;;2.80;;
60076;SDS011;45950;45.208;20.374;2022-08-03T12:17:31;3.92;;;2.70;;
60076;SDS011;45950;45.208;20.374;2022-08-03T12:19:58;2.80;;;2.40;;
60076;SDS011;45950;45.208;20.374;2022-08-03T12:22:30;2.85;;;2.30;;
60076;SDS011;45950;45.208;20.374;2022-08-03T12:24:57;3.85;;;2.70;;
60076;SDS011;45950;45.208;20.374;2022-08-03T12:27:25;3.08;;;2.75;;
60076;SDS011;45950;45.208;20.374;2022-08-03T12:29:54;3.35;;;2.30;;
60076;SDS011;45950;45.208;20.374;2022-08-03T12:32:21;3.70;;;2.75;;
60076;SDS011;45950;45.208;20.374;2022-08-03T12:34:48;2.78;;;2.55;;
60076;SDS011;45950;45.208;20.374;2022-08-03T12:37:17;3.88;;;2.67;;
60076;SDS011;45950;45.208;20.374;2022-08-03T12:39:48;4.30;;;2.80;;
60076;SDS011;45950;45.208;20.374;2022-08-03T12:42:15;3.88;;;2.83;;
60076;SDS011;45950;45.208;20.374;2022-08-03T12:44:43;3.05;;;2.75;;
60076;SDS011;45950;45.208;20.374;2022-08-03T12:47:10;3.03;;;2.50;;
60076;SDS011;45950;45.208;20.374;2022-08-03T12:49:46;3.20;;;2.90;;
60076;SDS011;45950;45.208;20.374;2022-08-03T12:52:13;2.53;;;2.25;;
60076;SDS011;45950;45.208;20.374;2022-08-03T12:54:40;3.13;;;2.72;;
60076;SDS011;45950;45.208;20.374;2022-08-03T12:57:08;2.63;;;2.35;;
60076;SDS011;45950;45.208;20.374;2022-08-03T12:59:36;2.80;;;2.60;;
60076;SDS011;45950;45.208;20.374;2022-08-03T13:02:14;3.17;;;2.72;;
60076;SDS011;45950;45.208;20.374;2022-08-03T13:04:41;2.90;;;2.60;;
60076;SDS011;45950;45.208;20.374;2022-08-03T13:07:09;3.42;;;2.25;;
60076;SDS011;45950;45.208;20.374;2022-08-03T13:09:39;5.20;;;2.80;;
60076;SDS011;45950;45.208;20.374;2022-08-03T13:12:08;2.50;;;2.30;;
60076;SDS011;45950;45.208;20.374;2022-08-03T13:14:35;4.43;;;2.38;;
60076;SDS011;45950;45.208;20.374;2022-08-03T13:17:02;3.17;;;2.47;;
60076;SDS011;45950;45.208;20.374;2022-08-03T13:19:31;3.47;;;2.40;;
60076;SDS011;45950;45.208;20.374;2022-08-03T13:21:58;2.63;;;2.20;;
60076;SDS011;45950;45.208;20.374;2022-08-03T13:24:25;2.80;;;2.60;;
60076;SDS011;45950;45.208;20.374;2022-08-03T13:26:52;3.22;;;2.92;;
60076;SDS011;45950;45.208;20.374;2022-08-03T13:29:19;7.47;;;2.53;;
60076;SDS011;45950;45.208;20.374;2022-08-03T13:31:46;2.70;;;2.22;;
60076;SDS011;45950;45.208;20.374;2022-08-03T13:34:12;4.15;;;2.70;;
60076;SDS011;45950;45.208;20.374;2022-08-03T13:36:41;3.35;;;2.95;;
60076;SDS011;45950;45.208;20.374;2022-08-03T13:39:08;3.38;;;2.70;;
60076;SDS011;45950;45.208;20.374;2022-08-03T13:41:34;3.65;;;2.70;;
60076;SDS011;45950;45.208;20.374;2022-08-03T13:44:01;3.85;;;2.85;;
60076;SDS011;45950;45.208;20.374;2022-08-03T13:46:28;2.95;;;2.60;;
60076;SDS011;45950;45.208;20.374;2022-08-03T13:48:54;3.60;;;2.58;;
60076;SDS011;45950;45.208;20.374;2022-08-03T13:51:21;3.90;;;2.60;;
60076;SDS011;45950;45.208;20.374;2022-08-03T13:53:50;5.13;;;2.33;;
60076;SDS011;45950;45.208;20.374;2022-08-03T13:56:16;4.75;;;2.80;;
60076;SDS011;45950;45.208;20.374;2022-08-03T13:58:43;4.15;;;2.53;;
60076;SDS011;45950;45.208;20.374;2022-08-03T14:01:10;2.65;;;2.35;;
60076;SDS011;45950;45.208;20.374;2022-08-03T14:03:36;3.25;;;2.28;;
60076;SDS011;45950;45.208;20.374;2022-08-03T14:06:03;4.18;;;2.60;;
60076;SDS011;45950;45.208;20.374;2022-08-03T14:08:30;3.45;;;2.40;;
60076;SDS011;45950;45.208;20.374;2022-08-03T14:10:58;3.92;;;2.40;;
60076;SDS011;45950;45.208;20.374;2022-08-03T14:13:25;3.03;;;2.53;;
60076;SDS011;45950;45.208;20.374;2022-08-03T14:15:51;2.95;;;2.63;;
60076;SDS011;45950;45.208;20.374;2022-08-03T14:18:20;4.28;;;2.65;;
60076;SDS011;45950;45.208;20.374;2022-08-03T14:20:46;3.67;;;2.90;;
60076;SDS011;45950;45.208;20.374;2022-08-03T14:23:13;2.92;;;2.30;;
60076;SDS011;45950;45.208;20.374;2022-08-03T14:25:40;3.10;;;2.55;;
60076;SDS011;45950;45.208;20.374;2022-08-03T14:28:08;3.60;;;2.80;;
60076;SDS011;45950;45.208;20.374;2022-08-03T14:30:35;3.92;;;2.38;;
60076;SDS011;45950;45.208;20.374;2022-08-03T14:33:02;2.90;;;2.47;;
60076;SDS011;45950;45.208;20.374;2022-08-03T14:35:29;2.50;;;2.30;;
60076;SDS011;45950;45.208;20.374;2022-08-03T14:37:55;3.50;;;2.42;;
60076;SDS011;45950;45.208;20.374;2022-08-03T14:40:22;3.80;;;2.10;;
60076;SDS011;45950;45.208;20.374;2022-08-03T14:42:49;4.70;;;2.67;;